sensor_id;sensor_type;location;lat;lon;timestamp;temperature;humidity
18712;DHT22;9485;49.386;8.674;2023-04-06T00:03:06;6.10;62.30
18712;DHT22;9485;49.386;8.674;2023-04-06T00:08:29;6.10;62.20
18712;DHT22;9485;49.386;8.674;2023-04-06T00:13:49;6.00;62.20
18712;DHT22;9485;49.386;8.674;2023-04-06T00:19:10;6.00;62.40
18712;DHT22;9485;49.386;8.674;2023-04-06T00:24:32;5.90;62.70
18712;DHT22;9485;49.386;8.674;2023-04-06T00:29:52;5.90;62.80
18712;DHT22;9485;49.386;8.674;2023-04-06T00:35:13;5.90;63.10
18712;DHT22;9485;49.386;8.674;2023-04-06T00:40:36;5.90;63.20
18712;DHT22;9485;49.386;8.674;2023-04-06T00:45:58;6.00;63.60
18712;DHT22;9485;49.386;8.674;2023-04-06T00:51:20;6.10;63.60
18712;DHT22;9485;49.386;8.674;2023-04-06T00:56:43;6.10;63.70
18712;DHT22;9485;49.386;8.674;2023-04-06T01:02:04;6.20;63.60
18712;DHT22;9485;49.386;8.674;2023-04-06T01:07:31;6.20;63.40
18712;DHT22;9485;49.386;8.674;2023-04-06T01:13:04;6.10;63.20
18712;DHT22;9485;49.386;8.674;2023-04-06T01:18:47;6.10;63.50
18712;DHT22;9485;49.386;8.674;2023-04-06T01:24:16;6.00;63.60
18712;DHT22;9485;49.386;8.674;2023-04-06T01:30:07;6.00;63.80
18712;DHT22;9485;49.386;8.674;2023-04-06T01:35:39;6.00;63.60
18712;DHT22;9485;49.386;8.674;2023-04-06T01:41:09;5.90;63.60
18712;DHT22;9485;49.386;8.674;2023-04-06T01:46:40;5.80;63.80
18712;DHT22;9485;49.386;8.674;2023-04-06T01:52:03;5.70;63.90
18712;DHT22;9485;49.386;8.674;2023-04-06T01:57:27;5.70;64.10
18712;DHT22;9485;49.386;8.674;2023-04-06T02:02:55;5.70;64.30
18712;DHT22;9485;49.386;8.674;2023-04-06T02:08:19;5.60;64.30
18712;DHT22;9485;49.386;8.674;2023-04-06T02:13:41;5.60;64.40
18712;DHT22;9485;49.386;8.674;2023-04-06T02:19:03;5.60;64.50
18712;DHT22;9485;49.386;8.674;2023-04-06T02:24:24;5.50;64.40
18712;DHT22;9485;49.386;8.674;2023-04-06T02:29:46;5.50;64.20
18712;DHT22;9485;49.386;8.674;2023-04-06T02:35:08;5.40;64.20
18712;DHT22;9485;49.386;8.674;2023-04-06T02:40:31;5.30;64.10
18712;DHT22;9485;49.386;8.674;2023-04-06T02:46:02;5.20;64.10
18712;DHT22;9485;49.386;8.674;2023-04-06T02:51:26;5.10;64.50
18712;DHT22;9485;49.386;8.674;2023-04-06T02:56:52;5.00;64.80
18712;DHT22;9485;49.386;8.674;2023-04-06T03:02:16;5.80;65.40
18712;DHT22;9485;49.386;8.674;2023-04-06T03:07:37;5.00;65.00
18712;DHT22;9485;49.386;8.674;2023-04-06T03:13:01;4.90;65.50
18712;DHT22;9485;49.386;8.674;2023-04-06T03:18:42;4.80;64.90
18712;DHT22;9485;49.386;8.674;2023-04-06T03:24:06;4.80;65.10
18712;DHT22;9485;49.386;8.674;2023-04-06T03:29:27;4.70;65.10
18712;DHT22;9485;49.386;8.674;2023-04-06T03:34:50;4.70;65.30
18712;DHT22;9485;49.386;8.674;2023-04-06T03:40:11;4.70;65.50
18712;DHT22;9485;49.386;8.674;2023-04-06T03:45:32;4.80;65.60
18712;DHT22;9485;49.386;8.674;2023-04-06T03:50:54;4.60;65.60
18712;DHT22;9485;49.386;8.674;2023-04-06T03:56:15;4.60;65.50
18712;DHT22;9485;49.386;8.674;2023-04-06T04:01:35;4.60;65.70
18712;DHT22;9485;49.386;8.674;2023-04-06T04:06:58;4.50;65.50
18712;DHT22;9485;49.386;8.674;2023-04-06T04:12:18;4.50;65.50
18712;DHT22;9485;49.386;8.674;2023-04-06T04:17:39;4.40;65.50
18712;DHT22;9485;49.386;8.674;2023-04-06T04:23:01;4.30;65.60
18712;DHT22;9485;49.386;8.674;2023-04-06T04:28:25;4.30;66.00
18712;DHT22;9485;49.386;8.674;2023-04-06T04:33:48;4.30;66.00
18712;DHT22;9485;49.386;8.674;2023-04-06T04:39:17;4.30;66.00
18712;DHT22;9485;49.386;8.674;2023-04-06T04:44:44;4.20;66.10
18712;DHT22;9485;49.386;8.674;2023-04-06T04:50:06;4.20;66.00
18712;DHT22;9485;49.386;8.674;2023-04-06T04:55:33;4.20;66.40
18712;DHT22;9485;49.386;8.674;2023-04-06T05:00:54;4.20;66.40
18712;DHT22;9485;49.386;8.674;2023-04-06T05:06:15;4.20;66.10
18712;DHT22;9485;49.386;8.674;2023-04-06T05:11:38;4.20;66.40
18712;DHT22;9485;49.386;8.674;2023-04-06T05:16:59;4.20;66.50
18712;DHT22;9485;49.386;8.674;2023-04-06T05:22:20;4.20;66.70
18712;DHT22;9485;49.386;8.674;2023-04-06T05:27:50;4.20;66.80
18712;DHT22;9485;49.386;8.674;2023-04-06T05:33:24;4.30;66.90
18712;DHT22;9485;49.386;8.674;2023-04-06T05:38:54;4.30;67.00
18712;DHT22;9485;49.386;8.674;2023-04-06T05:44:34;4.30;67.10
18712;DHT22;9485;49.386;8.674;2023-04-06T05:50:07;4.40;67.20
18712;DHT22;9485;49.386;8.674;2023-04-06T05:55:31;4.50;67.30
18712;DHT22;9485;49.386;8.674;2023-04-06T06:01:12;4.50;67.50
18712;DHT22;9485;49.386;8.674;2023-04-06T06:06:38;4.70;67.70
18712;DHT22;9485;49.386;8.674;2023-04-06T06:12:07;4.80;68.00
18712;DHT22;9485;49.386;8.674;2023-04-06T06:17:30;5.10;68.10
18712;DHT22;9485;49.386;8.674;2023-04-06T06:22:51;5.20;68.40
18712;DHT22;9485;49.386;8.674;2023-04-06T06:28:15;5.30;68.50
18712;DHT22;9485;49.386;8.674;2023-04-06T06:33:37;6.30;69.30
18712;DHT22;9485;49.386;8.674;2023-04-06T06:38:58;6.10;69.10
18712;DHT22;9485;49.386;8.674;2023-04-06T06:44:20;6.70;69.30
18712;DHT22;9485;49.386;8.674;2023-04-06T06:49:43;7.30;68.70
18712;DHT22;9485;49.386;8.674;2023-04-06T06:55:04;7.90;68.60
18712;DHT22;9485;49.386;8.674;2023-04-06T07:00:26;8.70;68.60
18712;DHT22;9485;49.386;8.674;2023-04-06T07:05:49;9.40;68.20
18712;DHT22;9485;49.386;8.674;2023-04-06T07:11:13;10.20;67.30
18712;DHT22;9485;49.386;8.674;2023-04-06T07:16:34;10.90;66.60
18712;DHT22;9485;49.386;8.674;2023-04-06T07:21:58;11.50;65.40
18712;DHT22;9485;49.386;8.674;2023-04-06T07:27:20;12.00;63.20
18712;DHT22;9485;49.386;8.674;2023-04-06T07:32:41;12.40;62.80
18712;DHT22;9485;49.386;8.674;2023-04-06T07:38:03;12.80;62.00
18712;DHT22;9485;49.386;8.674;2023-04-06T07:43:25;13.20;60.40
18712;DHT22;9485;49.386;8.674;2023-04-06T07:48:47;13.50;60.00
18712;DHT22;9485;49.386;8.674;2023-04-06T07:54:10;13.80;59.00
18712;DHT22;9485;49.386;8.674;2023-04-06T07:59:31;14.10;58.50
18712;DHT22;9485;49.386;8.674;2023-04-06T08:04:52;14.50;59.10
18712;DHT22;9485;49.386;8.674;2023-04-06T08:10:15;14.80;58.10
18712;DHT22;9485;49.386;8.674;2023-04-06T08:15:38;15.20;55.30
18712;DHT22;9485;49.386;8.674;2023-04-06T08:20:59;15.40;55.80
18712;DHT22;9485;49.386;8.674;2023-04-06T08:26:21;15.60;57.30
18712;DHT22;9485;49.386;8.674;2023-04-06T08:31:46;16.10;57.10
18712;DHT22;9485;49.386;8.674;2023-04-06T08:37:07;16.70;57.00
18712;DHT22;9485;49.386;8.674;2023-04-06T08:42:32;17.30;55.80
18712;DHT22;9485;49.386;8.674;2023-04-06T08:47:54;17.60;54.90
18712;DHT22;9485;49.386;8.674;2023-04-06T08:53:18;18.20;55.90
18712;DHT22;9485;49.386;8.674;2023-04-06T08:58:42;18.80;56.10
18712;DHT22;9485;49.386;8.674;2023-04-06T09:04:03;19.60;55.10
18712;DHT22;9485;49.386;8.674;2023-04-06T09:09:28;20.40;52.90
18712;DHT22;9485;49.386;8.674;2023-04-06T09:14:51;20.30;51.80
18712;DHT22;9485;49.386;8.674;2023-04-06T09:20:12;20.30;52.50
18712;DHT22;9485;49.386;8.674;2023-04-06T09:25:33;20.60;52.10
18712;DHT22;9485;49.386;8.674;2023-04-06T09:30:55;20.70;50.20
18712;DHT22;9485;49.386;8.674;2023-04-06T09:36:16;20.90;50.90
18712;DHT22;9485;49.386;8.674;2023-04-06T09:41:38;20.70;50.60
18712;DHT22;9485;49.386;8.674;2023-04-06T09:47:06;20.70;49.60
18712;DHT22;9485;49.386;8.674;2023-04-06T09:52:32;20.80;50.00
18712;DHT22;9485;49.386;8.674;2023-04-06T09:57:58;21.20;49.80
18712;DHT22;9485;49.386;8.674;2023-04-06T10:03:33;21.40;49.00
18712;DHT22;9485;49.386;8.674;2023-04-06T10:08:59;21.40;48.60
18712;DHT22;9485;49.386;8.674;2023-04-06T10:14:29;21.60;48.10
18712;DHT22;9485;49.386;8.674;2023-04-06T10:19:55;21.50;48.00
18712;DHT22;9485;49.386;8.674;2023-04-06T10:25:28;21.40;47.30
18712;DHT22;9485;49.386;8.674;2023-04-06T10:30:49;21.60;48.40
18712;DHT22;9485;49.386;8.674;2023-04-06T10:36:24;21.90;48.50
18712;DHT22;9485;49.386;8.674;2023-04-06T10:41:46;21.90;45.10
18712;DHT22;9485;49.386;8.674;2023-04-06T10:47:16;21.80;47.30
18712;DHT22;9485;49.386;8.674;2023-04-06T10:52:39;22.00;45.40
18712;DHT22;9485;49.386;8.674;2023-04-06T10:58:00;22.30;47.90
18712;DHT22;9485;49.386;8.674;2023-04-06T11:03:20;22.90;48.40
18712;DHT22;9485;49.386;8.674;2023-04-06T11:08:43;23.60;48.00
18712;DHT22;9485;49.386;8.674;2023-04-06T11:14:04;24.10;44.00
18712;DHT22;9485;49.386;8.674;2023-04-06T11:19:25;24.10;44.90
18712;DHT22;9485;49.386;8.674;2023-04-06T11:24:47;24.10;44.20
18712;DHT22;9485;49.386;8.674;2023-04-06T11:30:10;24.00;43.20
18712;DHT22;9485;49.386;8.674;2023-04-06T11:35:31;23.80;44.10
18712;DHT22;9485;49.386;8.674;2023-04-06T11:40:56;23.50;43.50
18712;DHT22;9485;49.386;8.674;2023-04-06T11:46:18;23.10;42.10
18712;DHT22;9485;49.386;8.674;2023-04-06T11:51:39;22.60;42.70
18712;DHT22;9485;49.386;8.674;2023-04-06T11:57:02;22.00;43.80
18712;DHT22;9485;49.386;8.674;2023-04-06T12:02:23;21.70;44.60
18712;DHT22;9485;49.386;8.674;2023-04-06T12:07:44;21.80;45.20
18712;DHT22;9485;49.386;8.674;2023-04-06T12:13:06;21.90;44.80
18712;DHT22;9485;49.386;8.674;2023-04-06T12:18:27;21.80;44.40
18712;DHT22;9485;49.386;8.674;2023-04-06T12:23:47;22.00;46.00
18712;DHT22;9485;49.386;8.674;2023-04-06T12:29:10;22.20;45.70
18712;DHT22;9485;49.386;8.674;2023-04-06T12:34:32;22.30;45.20
18712;DHT22;9485;49.386;8.674;2023-04-06T12:39:53;22.30;46.20
18712;DHT22;9485;49.386;8.674;2023-04-06T12:45:15;22.50;46.20
18712;DHT22;9485;49.386;8.674;2023-04-06T12:50:36;22.70;45.20
18712;DHT22;9485;49.386;8.674;2023-04-06T12:55:57;22.90;45.70
18712;DHT22;9485;49.386;8.674;2023-04-06T13:01:20;22.90;44.90
18712;DHT22;9485;49.386;8.674;2023-04-06T13:06:41;23.00;45.50
18712;DHT22;9485;49.386;8.674;2023-04-06T13:12:02;23.10;46.20
18712;DHT22;9485;49.386;8.674;2023-04-06T13:17:26;23.30;46.40
18712;DHT22;9485;49.386;8.674;2023-04-06T13:22:47;23.60;45.70
18712;DHT22;9485;49.386;8.674;2023-04-06T13:28:08;23.70;44.30
18712;DHT22;9485;49.386;8.674;2023-04-06T13:33:30;23.50;45.00
18712;DHT22;9485;49.386;8.674;2023-04-06T13:38:51;23.50;44.90
18712;DHT22;9485;49.386;8.674;2023-04-06T13:44:14;23.40;44.40
18712;DHT22;9485;49.386;8.674;2023-04-06T13:49:36;23.40;44.50
18712;DHT22;9485;49.386;8.674;2023-04-06T13:54:56;23.40;44.40
18712;DHT22;9485;49.386;8.674;2023-04-06T14:00:18;23.30;44.20
18712;DHT22;9485;49.386;8.674;2023-04-06T14:05:40;23.10;43.90
18712;DHT22;9485;49.386;8.674;2023-04-06T14:11:01;22.80;43.40
18712;DHT22;9485;49.386;8.674;2023-04-06T14:16:23;22.40;42.80
18712;DHT22;9485;49.386;8.674;2023-04-06T14:21:46;21.90;43.20
18712;DHT22;9485;49.386;8.674;2023-04-06T14:27:07;21.60;42.70
18712;DHT22;9485;49.386;8.674;2023-04-06T14:32:28;21.30;43.20
18712;DHT22;9485;49.386;8.674;2023-04-06T14:37:50;20.90;42.50
18712;DHT22;9485;49.386;8.674;2023-04-06T14:43:11;20.50;42.60
18712;DHT22;9485;49.386;8.674;2023-04-06T14:48:31;20.10;43.50
18712;DHT22;9485;49.386;8.674;2023-04-06T14:53:53;19.90;44.20
18712;DHT22;9485;49.386;8.674;2023-04-06T14:59:13;19.70;43.90
18712;DHT22;9485;49.386;8.674;2023-04-06T15:04:34;19.60;43.70
18712;DHT22;9485;49.386;8.674;2023-04-06T15:09:57;19.40;44.30
18712;DHT22;9485;49.386;8.674;2023-04-06T15:15:17;19.30;44.10
18712;DHT22;9485;49.386;8.674;2023-04-06T15:20:38;19.20;43.70
18712;DHT22;9485;49.386;8.674;2023-04-06T15:26:01;19.00;44.40
18712;DHT22;9485;49.386;8.674;2023-04-06T15:31:23;18.90;44.50
18712;DHT22;9485;49.386;8.674;2023-04-06T15:36:44;18.70;44.30
18712;DHT22;9485;49.386;8.674;2023-04-06T15:42:06;18.60;44.50
18712;DHT22;9485;49.386;8.674;2023-04-06T15:47:27;18.50;43.70
18712;DHT22;9485;49.386;8.674;2023-04-06T15:52:48;18.30;44.00
18712;DHT22;9485;49.386;8.674;2023-04-06T15:58:11;18.20;44.10
18712;DHT22;9485;49.386;8.674;2023-04-06T16:03:32;18.10;44.10
18712;DHT22;9485;49.386;8.674;2023-04-06T16:08:53;18.00;44.50
18712;DHT22;9485;49.386;8.674;2023-04-06T16:14:15;17.90;43.80
18712;DHT22;9485;49.386;8.674;2023-04-06T16:19:36;17.70;44.00
18712;DHT22;9485;49.386;8.674;2023-04-06T16:24:57;17.70;44.80
18712;DHT22;9485;49.386;8.674;2023-04-06T16:30:19;17.20;43.60
18712;DHT22;9485;49.386;8.674;2023-04-06T16:35:42;17.50;44.60
18712;DHT22;9485;49.386;8.674;2023-04-06T16:41:04;17.40;44.50
18712;DHT22;9485;49.386;8.674;2023-04-06T16:46:29;17.30;44.80
18712;DHT22;9485;49.386;8.674;2023-04-06T16:51:50;17.30;44.50
18712;DHT22;9485;49.386;8.674;2023-04-06T16:57:12;17.20;45.60
18712;DHT22;9485;49.386;8.674;2023-04-06T17:02:34;17.20;45.80
18712;DHT22;9485;49.386;8.674;2023-04-06T17:07:55;17.10;45.50
18712;DHT22;9485;49.386;8.674;2023-04-06T17:13:16;17.10;45.70
18712;DHT22;9485;49.386;8.674;2023-04-06T17:18:38;17.00;45.30
18712;DHT22;9485;49.386;8.674;2023-04-06T17:23:59;16.90;45.40
18712;DHT22;9485;49.386;8.674;2023-04-06T17:29:21;16.80;45.50
18712;DHT22;9485;49.386;8.674;2023-04-06T17:34:43;16.60;45.80
18712;DHT22;9485;49.386;8.674;2023-04-06T17:40:05;16.50;46.00
18712;DHT22;9485;49.386;8.674;2023-04-06T17:45:27;16.30;46.50
18712;DHT22;9485;49.386;8.674;2023-04-06T17:50:49;16.10;46.90
18712;DHT22;9485;49.386;8.674;2023-04-06T17:56:10;16.00;47.10
18712;DHT22;9485;49.386;8.674;2023-04-06T18:01:31;15.90;47.50
18712;DHT22;9485;49.386;8.674;2023-04-06T18:06:53;15.70;47.90
18712;DHT22;9485;49.386;8.674;2023-04-06T18:12:14;15.60;48.00
18712;DHT22;9485;49.386;8.674;2023-04-06T18:17:34;15.70;48.50
18712;DHT22;9485;49.386;8.674;2023-04-06T18:22:56;15.40;48.60
18712;DHT22;9485;49.386;8.674;2023-04-06T18:28:17;15.30;48.80
18712;DHT22;9485;49.386;8.674;2023-04-06T18:33:37;15.20;49.10
18712;DHT22;9485;49.386;8.674;2023-04-06T18:39:00;15.10;49.40
18712;DHT22;9485;49.386;8.674;2023-04-06T18:44:20;15.10;49.50
18712;DHT22;9485;49.386;8.674;2023-04-06T18:49:41;15.00;49.60
18712;DHT22;9485;49.386;8.674;2023-04-06T18:55:04;14.60;49.80
18712;DHT22;9485;49.386;8.674;2023-04-06T19:00:29;14.80;50.00
18712;DHT22;9485;49.386;8.674;2023-04-06T19:05:50;14.80;50.40
18712;DHT22;9485;49.386;8.674;2023-04-06T19:11:12;14.70;50.60
18712;DHT22;9485;49.386;8.674;2023-04-06T19:16:33;14.60;50.90
18712;DHT22;9485;49.386;8.674;2023-04-06T19:21:59;14.50;51.30
18712;DHT22;9485;49.386;8.674;2023-04-06T19:27:21;14.30;51.60
18712;DHT22;9485;49.386;8.674;2023-04-06T19:32:41;14.10;52.00
18712;DHT22;9485;49.386;8.674;2023-04-06T19:38:02;13.90;52.40
18712;DHT22;9485;49.386;8.674;2023-04-06T19:43:24;13.80;53.10
18712;DHT22;9485;49.386;8.674;2023-04-06T19:48:45;13.60;53.80
18712;DHT22;9485;49.386;8.674;2023-04-06T19:54:06;13.50;54.20
18712;DHT22;9485;49.386;8.674;2023-04-06T19:59:28;13.40;54.70
18712;DHT22;9485;49.386;8.674;2023-04-06T20:04:49;13.10;55.60
18712;DHT22;9485;49.386;8.674;2023-04-06T20:10:10;13.10;56.50
18712;DHT22;9485;49.386;8.674;2023-04-06T20:15:33;13.00;57.30
18712;DHT22;9485;49.386;8.674;2023-04-06T20:20:54;12.90;58.20
18712;DHT22;9485;49.386;8.674;2023-04-06T20:26:15;12.80;58.90
18712;DHT22;9485;49.386;8.674;2023-04-06T20:31:36;12.70;59.30
18712;DHT22;9485;49.386;8.674;2023-04-06T20:36:57;12.60;60.00
18712;DHT22;9485;49.386;8.674;2023-04-06T20:42:18;12.50;60.80
18712;DHT22;9485;49.386;8.674;2023-04-06T20:47:42;12.40;61.10
18712;DHT22;9485;49.386;8.674;2023-04-06T20:53:03;12.40;61.70
18712;DHT22;9485;49.386;8.674;2023-04-06T20:58:24;12.30;62.00
18712;DHT22;9485;49.386;8.674;2023-04-06T21:03:46;12.20;62.30
18712;DHT22;9485;49.386;8.674;2023-04-06T21:09:07;12.10;62.80
18712;DHT22;9485;49.386;8.674;2023-04-06T21:14:28;11.90;63.20
18712;DHT22;9485;49.386;8.674;2023-04-06T21:19:50;11.80;63.90
18712;DHT22;9485;49.386;8.674;2023-04-06T21:25:11;11.80;64.60
18712;DHT22;9485;49.386;8.674;2023-04-06T21:30:32;11.70;64.90
18712;DHT22;9485;49.386;8.674;2023-04-06T21:35:56;11.70;65.50
18712;DHT22;9485;49.386;8.674;2023-04-06T21:41:17;11.60;66.00
18712;DHT22;9485;49.386;8.674;2023-04-06T21:46:38;11.60;66.30
18712;DHT22;9485;49.386;8.674;2023-04-06T21:52:00;11.40;66.90
18712;DHT22;9485;49.386;8.674;2023-04-06T21:57:21;11.30;67.40
18712;DHT22;9485;49.386;8.674;2023-04-06T22:02:41;11.20;68.00
18712;DHT22;9485;49.386;8.674;2023-04-06T22:08:05;11.10;68.50
18712;DHT22;9485;49.386;8.674;2023-04-06T22:13:26;11.00;69.40
18712;DHT22;9485;49.386;8.674;2023-04-06T22:18:48;10.90;69.80
18712;DHT22;9485;49.386;8.674;2023-04-06T22:24:10;10.80;70.40
18712;DHT22;9485;49.386;8.674;2023-04-06T22:29:31;10.80;70.90
18712;DHT22;9485;49.386;8.674;2023-04-06T22:34:52;10.70;71.40
18712;DHT22;9485;49.386;8.674;2023-04-06T22:40:14;10.70;71.80
18712;DHT22;9485;49.386;8.674;2023-04-06T22:45:35;10.70;72.50
18712;DHT22;9485;49.386;8.674;2023-04-06T22:50:56;10.60;72.70
18712;DHT22;9485;49.386;8.674;2023-04-06T22:56:18;10.60;73.30
18712;DHT22;9485;49.386;8.674;2023-04-06T23:01:39;10.50;73.50
18712;DHT22;9485;49.386;8.674;2023-04-06T23:07:00;10.50;73.90
18712;DHT22;9485;49.386;8.674;2023-04-06T23:12:23;10.40;74.20
18712;DHT22;9485;49.386;8.674;2023-04-06T23:17:43;10.40;74.60
18712;DHT22;9485;49.386;8.674;2023-04-06T23:23:04;10.40;75.00
18712;DHT22;9485;49.386;8.674;2023-04-06T23:28:26;10.40;75.20
18712;DHT22;9485;49.386;8.674;2023-04-06T23:33:47;10.40;75.60
18712;DHT22;9485;49.386;8.674;2023-04-06T23:39:07;10.40;76.00
18712;DHT22;9485;49.386;8.674;2023-04-06T23:44:29;10.40;76.20
18712;DHT22;9485;49.386;8.674;2023-04-06T23:49:50;10.50;76.40
18712;DHT22;9485;49.386;8.674;2023-04-06T23:55:11;10.50;76.60
